createdAt,value
2023-02-07T00:01:10.070Z,78.34
2023-02-07T00:03:37.345Z,78.67
2023-02-07T00:06:10.049Z,78.97
2023-02-07T00:08:38.602Z,79.15
2023-02-07T00:11:07.221Z,79.23
2023-02-07T00:13:34.769Z,78.71
2023-02-07T00:16:03.186Z,78.33
2023-02-07T00:18:30.418Z,78.32
2023-02-07T00:21:02.937Z,78.25
2023-02-07T00:23:30.300Z,78.54
2023-02-07T00:25:57.360Z,79.06
2023-02-07T00:28:24.677Z,78.70
2023-02-07T00:30:52.306Z,78.55
2023-02-07T00:33:19.523Z,78.69
2023-02-07T00:35:46.693Z,77.93
2023-02-07T00:38:13.735Z,78.45
2023-02-07T00:40:40.781Z,78.26
2023-02-07T00:43:08.074Z,78.00
2023-02-07T00:45:35.306Z,78.44
2023-02-07T00:48:02.867Z,78.38
2023-02-07T00:50:29.896Z,78.30
2023-02-07T00:52:56.981Z,77.60
2023-02-07T00:55:24.027Z,78.09
2023-02-07T00:57:51.181Z,78.15
2023-02-07T01:00:18.315Z,77.86
2023-02-07T01:02:45.557Z,78.03
2023-02-07T01:05:12.691Z,78.30
2023-02-07T01:07:40.018Z,78.67
2023-02-07T01:10:07.678Z,78.38
2023-02-07T01:12:34.946Z,78.55
2023-02-07T01:15:02.429Z,78.60
2023-02-07T01:17:29.580Z,78.93
2023-02-07T01:19:58.680Z,77.79
2023-02-07T01:22:26.853Z,77.99
2023-02-07T01:24:55.029Z,77.92
2023-02-07T01:27:23.318Z,78.24
2023-02-07T01:29:50.702Z,78.37
2023-02-07T01:32:17.959Z,78.98
2023-02-07T01:34:45.256Z,78.65
2023-02-07T01:37:12.651Z,78.47
2023-02-07T01:39:39.898Z,79.06
2023-02-07T01:42:07.347Z,79.36
2023-02-07T01:44:37.431Z,79.16
2023-02-07T01:47:04.546Z,79.43
2023-02-07T01:49:34.326Z,78.98
2023-02-07T01:52:08.806Z,79.06
2023-02-07T01:54:36.658Z,79.25
2023-02-07T01:57:07.264Z,79.14
2023-02-07T01:59:36.018Z,79.14
2023-02-07T02:02:04.621Z,78.80
2023-02-07T02:04:31.983Z,79.19
2023-02-07T02:06:59.895Z,79.32
2023-02-07T02:09:27.509Z,79.58
2023-02-07T02:12:03.854Z,78.76
2023-02-07T02:14:55.375Z,77.96
2023-02-07T02:17:40.182Z,77.71
2023-02-07T02:20:44.739Z,77.33
2023-02-07T02:23:20.579Z,77.24
2023-02-07T02:26:05.610Z,78.36
2023-02-07T02:29:00.710Z,78.28
2023-02-07T02:31:51.867Z,78.57
2023-02-07T02:34:38.707Z,78.61
2023-02-07T02:37:36.326Z,78.41
2023-02-07T02:40:08.100Z,78.32
2023-02-07T02:42:42.431Z,78.60
2023-02-07T02:45:16.886Z,78.91
2023-02-07T02:47:45.803Z,78.89
2023-02-07T02:50:15.776Z,78.66
2023-02-07T02:52:50.517Z,78.56
2023-02-07T02:55:22.735Z,78.63
2023-02-07T02:58:11.547Z,78.13
2023-02-07T03:00:46.635Z,78.23
2023-02-07T03:03:49.171Z,78.41
2023-02-07T03:06:35.301Z,77.49
2023-02-07T03:09:30.212Z,77.50
2023-02-07T03:12:22.229Z,77.75
2023-02-07T03:14:53.290Z,77.54
2023-02-07T03:17:25.030Z,77.89
2023-02-07T03:20:30.841Z,78.08
2023-02-07T03:22:59.213Z,77.65
2023-02-07T03:25:27.748Z,77.40
2023-02-07T03:27:56.111Z,77.63
2023-02-07T03:30:26.611Z,76.96
2023-02-07T03:32:58.594Z,76.91
2023-02-07T03:36:06.054Z,77.15
2023-02-07T03:38:33.179Z,77.27
2023-02-07T03:41:05.344Z,77.85
2023-02-07T03:43:33.614Z,78.19
2023-02-07T03:46:00.733Z,77.25
2023-02-07T03:48:27.798Z,77.28
2023-02-07T03:50:54.883Z,77.75
2023-02-07T03:53:21.950Z,78.51
2023-02-07T03:55:49.021Z,78.26
2023-02-07T03:58:16.064Z,78.08
2023-02-07T04:00:43.157Z,77.68
2023-02-07T04:03:10.528Z,78.14
2023-02-07T04:05:38.127Z,78.11
2023-02-07T04:08:05.483Z,78.26
2023-02-07T04:10:32.569Z,77.69
2023-02-07T04:12:59.632Z,77.67
2023-02-07T04:15:26.830Z,77.85
2023-02-07T04:17:53.851Z,77.64
2023-02-07T04:20:21.017Z,77.92
2023-02-07T04:22:48.263Z,77.22
2023-02-07T04:25:15.359Z,76.86
2023-02-07T04:27:42.524Z,76.89
2023-02-07T04:30:10.151Z,77.08
2023-02-07T04:32:37.203Z,77.33
2023-02-07T04:35:04.591Z,77.50
2023-02-07T04:37:32.039Z,76.83
2023-02-07T04:39:59.136Z,77.56
2023-02-07T04:42:26.191Z,77.40
2023-02-07T04:44:53.300Z,77.64
2023-02-07T04:47:20.365Z,77.10
2023-02-07T04:49:47.487Z,77.32
2023-02-07T04:52:14.668Z,77.63
2023-02-07T04:54:41.734Z,77.68
2023-02-07T04:57:08.905Z,77.36
2023-02-07T04:59:35.973Z,77.53
2023-02-07T05:02:03.010Z,77.39
2023-02-07T05:04:30.144Z,77.19
2023-02-07T05:06:58.181Z,77.51
2023-02-07T05:09:25.517Z,77.49
2023-02-07T05:11:52.655Z,77.37
2023-02-07T05:14:19.742Z,77.80
2023-02-07T05:16:46.996Z,77.70
2023-02-07T05:19:14.072Z,78.06
2023-02-07T05:21:41.145Z,78.11
2023-02-07T05:24:08.273Z,78.20
2023-02-07T05:26:35.352Z,77.28
2023-02-07T05:29:02.512Z,76.99
2023-02-07T05:32:06.861Z,76.46
2023-02-07T05:34:34.077Z,76.51
2023-02-07T05:37:01.120Z,77.26
2023-02-07T05:39:28.183Z,78.21
2023-02-07T05:41:55.268Z,78.01
2023-02-07T05:44:22.800Z,77.66
2023-02-07T05:46:51.777Z,77.28
2023-02-07T05:49:19.668Z,77.05
2023-02-07T05:51:46.697Z,76.90
2023-02-07T05:54:13.721Z,77.41
2023-02-07T05:56:40.772Z,77.60
2023-02-07T05:59:07.831Z,77.58
2023-02-07T06:01:37.322Z,77.21
2023-02-07T06:04:04.583Z,77.08
2023-02-07T06:06:31.636Z,76.81
2023-02-07T06:08:58.678Z,76.91
2023-02-07T06:11:25.977Z,77.20
2023-02-07T06:13:53.050Z,77.27
2023-02-07T06:16:20.186Z,77.51
2023-02-07T06:18:47.292Z,77.50
2023-02-07T06:21:14.347Z,77.47
2023-02-07T06:23:41.445Z,77.16
2023-02-07T06:26:08.725Z,77.44
2023-02-07T06:28:35.758Z,77.92
2023-02-07T06:31:03.002Z,76.96
2023-02-07T06:33:30.540Z,76.63
2023-02-07T06:35:57.562Z,77.48
2023-02-07T06:38:24.599Z,76.87
2023-02-07T06:40:51.817Z,77.47
2023-02-07T06:43:18.892Z,76.81
2023-02-07T06:45:46.042Z,76.62
2023-02-07T06:48:13.217Z,76.85
2023-02-07T06:50:40.241Z,77.09
2023-02-07T06:53:07.258Z,77.76
2023-02-07T06:55:39.564Z,77.40
2023-02-07T06:58:07.262Z,77.69
2023-02-07T07:00:34.312Z,77.88
2023-02-07T07:03:01.803Z,77.40
2023-02-07T07:05:29.705Z,77.52
2023-02-07T07:07:57.060Z,77.54
2023-02-07T07:10:24.215Z,77.46
2023-02-07T07:12:51.259Z,76.79
2023-02-07T07:15:18.365Z,77.90
2023-02-07T07:17:45.414Z,77.49
2023-02-07T07:20:13.047Z,77.33
2023-02-07T07:22:40.089Z,76.70
2023-02-07T07:25:07.202Z,76.62
2023-02-07T07:27:34.380Z,76.94
2023-02-07T07:30:01.505Z,76.93
2023-02-07T07:32:34.340Z,77.58
2023-02-07T07:35:02.621Z,76.96
2023-02-07T07:37:29.739Z,77.42
2023-02-07T07:39:57.139Z,77.43
2023-02-07T07:42:24.200Z,77.18
2023-02-07T07:44:51.360Z,77.42
2023-02-07T07:47:18.977Z,77.60
2023-02-07T07:49:46.083Z,77.97
2023-02-07T07:52:13.098Z,77.86
2023-02-07T07:54:40.136Z,78.51
2023-02-07T07:57:07.199Z,78.80
2023-02-07T07:59:34.286Z,78.66
2023-02-07T08:02:01.400Z,79.11
2023-02-07T08:04:28.465Z,78.74
2023-02-07T08:06:55.600Z,78.18
2023-02-07T08:09:22.642Z,78.10
2023-02-07T08:11:49.701Z,77.98
2023-02-07T08:14:17.375Z,78.01
2023-02-07T08:16:44.432Z,78.00
2023-02-07T08:19:11.663Z,78.46
2023-02-07T08:21:38.768Z,78.72
2023-02-07T08:24:06.048Z,78.19
2023-02-07T08:26:33.072Z,78.15
2023-02-07T08:29:00.234Z,77.96
2023-02-07T08:31:27.411Z,78.15
2023-02-07T08:33:54.590Z,77.59
2023-02-07T08:36:21.961Z,77.72
2023-02-07T08:38:49.045Z,77.50
2023-02-07T08:41:16.182Z,76.76
2023-02-07T08:43:43.240Z,77.07
2023-02-07T08:46:10.392Z,77.54
2023-02-07T08:48:37.584Z,78.18
2023-02-07T08:51:09.011Z,77.39
2023-02-07T08:53:37.031Z,77.61
2023-02-07T08:56:04.728Z,78.12
2023-02-07T08:58:32.212Z,77.47
2023-02-07T09:00:59.418Z,77.01
2023-02-07T09:03:26.616Z,76.59
2023-02-07T09:05:58.987Z,77.15
2023-02-07T09:08:26.232Z,75.73
2023-02-07T09:10:53.349Z,75.51
2023-02-07T09:13:20.423Z,75.12
2023-02-07T09:15:55.890Z,75.58
2023-02-07T09:18:24.089Z,74.99
2023-02-07T09:20:51.413Z,75.39
2023-02-07T09:23:19.202Z,75.15
2023-02-07T09:25:49.498Z,74.34
2023-02-07T09:28:17.825Z,74.54
2023-02-07T09:30:45.835Z,74.30
2023-02-07T09:33:13.793Z,73.50
2023-02-07T09:35:43.790Z,73.65
2023-02-07T09:38:17.154Z,73.78
2023-02-07T09:40:45.516Z,73.51
2023-02-07T09:43:22.484Z,73.71
2023-02-07T09:45:54.277Z,73.62
2023-02-07T09:48:32.181Z,73.54
2023-02-07T09:51:00.809Z,73.88
2023-02-07T09:53:54.437Z,73.32
2023-02-07T09:56:22.377Z,73.49
2023-02-07T09:59:00.669Z,72.48
2023-02-07T10:01:33.525Z,71.31
2023-02-07T10:04:12.825Z,71.88
2023-02-07T10:06:41.665Z,71.61
2023-02-07T10:09:12.785Z,71.72
2023-02-07T10:11:45.791Z,70.75
2023-02-07T10:14:34.133Z,70.43
2023-02-07T10:17:25.730Z,70.25
2023-02-07T10:20:10.298Z,71.56
2023-02-07T10:23:03.308Z,71.34
2023-02-07T10:25:39.520Z,71.01
2023-02-07T10:28:26.772Z,70.26
2023-02-07T10:30:57.462Z,70.16
2023-02-07T10:33:34.464Z,68.93
2023-02-07T10:36:07.262Z,69.28
2023-02-07T10:38:40.214Z,67.45
2023-02-07T10:41:20.561Z,66.90
2023-02-07T10:43:47.892Z,67.56
2023-02-07T10:46:16.543Z,67.17
2023-02-07T10:48:43.684Z,67.50
2023-02-07T10:51:35.610Z,67.28
2023-02-07T10:54:11.394Z,67.01
2023-02-07T10:56:44.623Z,66.97
2023-02-07T10:59:30.157Z,67.61
2023-02-07T11:01:57.440Z,68.20
2023-02-07T11:04:39.229Z,66.90
2023-02-07T11:07:07.957Z,69.18
2023-02-07T11:09:38.046Z,68.70
2023-02-07T11:12:23.512Z,67.46
2023-02-07T11:15:01.330Z,68.10
2023-02-07T11:17:29.160Z,67.00
2023-02-07T11:19:56.304Z,68.10
2023-02-07T11:22:24.541Z,67.46
2023-02-07T11:24:53.691Z,67.60
2023-02-07T11:27:21.848Z,66.67
2023-02-07T11:29:56.166Z,67.81
2023-02-07T11:32:25.627Z,67.56
2023-02-07T11:34:56.819Z,67.26
2023-02-07T11:37:43.501Z,68.15
2023-02-07T11:40:19.281Z,66.83
2023-02-07T11:42:58.976Z,67.24
2023-02-07T11:45:27.263Z,67.42
2023-02-07T11:47:56.282Z,65.48
2023-02-07T11:50:32.273Z,66.57
2023-02-07T11:53:00.962Z,65.05
2023-02-07T11:55:35.168Z,65.93
2023-02-07T11:58:08.687Z,65.63
2023-02-07T12:00:36.950Z,66.29
2023-02-07T12:03:08.084Z,65.60
2023-02-07T12:05:41.942Z,65.38
2023-02-07T12:08:15.627Z,66.14
2023-02-07T12:10:45.113Z,65.25
2023-02-07T12:13:19.941Z,65.11
2023-02-07T12:16:02.600Z,66.14
2023-02-07T12:18:34.065Z,66.12
2023-02-07T12:21:12.375Z,64.59
2023-02-07T12:23:43.696Z,64.96
2023-02-07T12:26:23.657Z,66.26
2023-02-07T12:29:15.146Z,65.26
2023-02-07T12:31:57.021Z,63.93
2023-02-07T12:34:31.885Z,64.10
2023-02-07T12:37:05.532Z,64.63
2023-02-07T12:39:43.299Z,65.65
2023-02-07T12:42:39.528Z,65.49
2023-02-07T12:45:07.604Z,64.31
2023-02-07T12:47:59.643Z,65.10
2023-02-07T12:50:48.205Z,64.21
2023-02-07T12:53:28.441Z,64.69
2023-02-07T12:56:17.644Z,64.33
2023-02-07T12:59:02.444Z,65.17
2023-02-07T13:01:49.882Z,64.09
2023-02-07T13:04:52.282Z,63.89
2023-02-07T13:07:36.231Z,65.10
2023-02-07T13:10:23.237Z,65.39
2023-02-07T13:13:10.249Z,65.54
2023-02-07T13:15:42.687Z,65.63
2023-02-07T13:18:21.750Z,66.36
2023-02-07T13:20:54.371Z,66.37
2023-02-07T13:23:23.152Z,65.34
2023-02-07T13:25:57.868Z,65.97
2023-02-07T13:28:40.522Z,65.71
2023-02-07T13:31:11.483Z,66.21
2023-02-07T13:33:40.092Z,65.69
2023-02-07T13:36:36.122Z,65.94
2023-02-07T13:39:14.141Z,65.57
2023-02-07T13:42:09.892Z,65.63
2023-02-07T13:44:51.656Z,65.54
2023-02-07T13:47:31.665Z,66.00
2023-02-07T13:50:04.685Z,66.69
2023-02-07T13:52:43.791Z,64.85
2023-02-07T13:55:33.277Z,65.26
2023-02-07T13:58:19.187Z,65.29
2023-02-07T14:00:58.378Z,66.05
2023-02-07T14:03:35.678Z,66.08
2023-02-07T14:06:22.610Z,65.79
2023-02-07T14:09:24.215Z,65.04
2023-02-07T14:12:01.634Z,66.03
2023-02-07T14:14:31.063Z,66.02
2023-02-07T14:17:04.001Z,66.45
2023-02-07T14:19:45.408Z,66.23
2023-02-07T14:22:27.068Z,66.64
2023-02-07T14:25:03.420Z,66.69
2023-02-07T14:27:39.156Z,67.03
2023-02-07T14:30:13.078Z,66.75
2023-02-07T14:33:00.412Z,67.31
2023-02-07T14:35:27.584Z,67.10
2023-02-07T14:38:06.629Z,66.95
2023-02-07T14:41:01.902Z,67.08
2023-02-07T14:43:40.360Z,67.14
2023-02-07T14:46:11.303Z,66.79
2023-02-07T14:48:44.513Z,67.35
2023-02-07T14:51:19.135Z,67.56
2023-02-07T14:53:55.380Z,67.13
2023-02-07T14:56:38.356Z,68.09
2023-02-07T14:59:06.583Z,66.90
2023-02-07T15:01:33.671Z,68.26
2023-02-07T15:04:02.366Z,67.97
2023-02-07T15:06:32.602Z,67.87
2023-02-07T15:09:01.060Z,67.49
2023-02-07T15:11:29.419Z,67.52
2023-02-07T15:13:59.421Z,68.68
2023-02-07T15:16:29.678Z,68.72
2023-02-07T15:19:21.129Z,68.97
2023-02-07T15:21:51.131Z,69.53
2023-02-07T15:24:26.844Z,69.60
2023-02-07T15:26:58.462Z,69.61
2023-02-07T15:29:28.577Z,69.90
2023-02-07T15:31:56.124Z,69.99
2023-02-07T15:34:31.485Z,70.77
2023-02-07T15:37:00.644Z,70.48
2023-02-07T15:39:29.356Z,70.97
2023-02-07T15:41:57.127Z,71.22
2023-02-07T15:44:29.588Z,71.64
2023-02-07T15:47:01.906Z,72.33
2023-02-07T15:49:30.379Z,72.25
2023-02-07T15:52:01.998Z,72.49
2023-02-07T15:54:29.106Z,72.63
2023-02-07T15:57:00.020Z,72.44
2023-02-07T15:59:31.485Z,72.98
2023-02-07T16:02:00.946Z,72.65
2023-02-07T16:04:30.473Z,73.05
2023-02-07T16:07:01.608Z,73.12
2023-02-07T16:09:43.249Z,72.98
2023-02-07T16:12:32.132Z,73.21
2023-02-07T16:15:00.635Z,72.99
2023-02-07T16:17:41.883Z,73.02
2023-02-07T16:20:14.445Z,72.74
2023-02-07T16:22:45.324Z,73.04
2023-02-07T16:25:19.254Z,73.16
2023-02-07T16:27:48.963Z,73.83
2023-02-07T16:30:25.825Z,73.09
2023-02-07T16:32:52.949Z,73.87
2023-02-07T16:35:23.119Z,73.60
2023-02-07T16:37:50.462Z,73.40
2023-02-07T16:40:18.340Z,73.73
2023-02-07T16:42:45.611Z,73.92
2023-02-07T16:45:25.423Z,73.61
2023-02-07T16:47:52.552Z,73.81
2023-02-07T16:50:21.684Z,74.28
2023-02-07T16:52:49.820Z,74.21
2023-02-07T16:55:18.434Z,73.73
2023-02-07T16:57:47.567Z,74.36
2023-02-07T17:00:21.115Z,74.14
2023-02-07T17:02:50.428Z,74.17
2023-02-07T17:05:18.812Z,74.72
2023-02-07T17:07:46.571Z,74.56
2023-02-07T17:10:21.560Z,74.81
2023-02-07T17:12:48.692Z,74.83
2023-02-07T17:15:16.531Z,75.06
2023-02-07T17:17:43.653Z,75.29
2023-02-07T17:20:21.742Z,75.25
2023-02-07T17:25:22.637Z,75.18
2023-02-07T17:27:49.758Z,75.07
2023-02-07T17:30:22.016Z,75.42
2023-02-07T17:32:49.485Z,75.72
2023-02-07T17:35:16.577Z,75.92
2023-02-07T17:37:43.758Z,75.72
2023-02-07T17:40:23.900Z,75.99
2023-02-07T17:42:51.141Z,76.10
2023-02-07T17:45:18.259Z,76.09
2023-02-07T17:47:45.554Z,76.20
2023-02-07T17:50:21.344Z,76.65
2023-02-07T17:52:48.429Z,76.58
2023-02-07T17:55:16.181Z,76.37
2023-02-07T17:57:43.781Z,76.43
2023-02-07T18:00:24.144Z,76.17
2023-02-07T18:02:51.527Z,76.68
2023-02-07T18:05:18.662Z,77.02
2023-02-07T18:07:46.614Z,76.84
2023-02-07T18:10:20.035Z,76.83
2023-02-07T18:12:47.414Z,77.30
2023-02-07T18:15:14.852Z,77.03
2023-02-07T18:17:47.185Z,77.11
2023-02-07T18:20:20.094Z,77.73
2023-02-07T18:22:47.382Z,77.14
2023-02-07T18:25:14.823Z,77.89
2023-02-07T18:27:42.724Z,77.52
2023-02-07T18:30:20.944Z,77.34
2023-02-07T18:32:48.881Z,77.75
2023-02-07T18:35:16.443Z,77.77
2023-02-07T18:37:43.524Z,77.81
2023-02-07T18:40:12.967Z,77.57
2023-02-07T18:42:40.057Z,77.64
2023-02-07T18:45:07.672Z,77.17
2023-02-07T18:47:34.986Z,77.18
2023-02-07T18:50:02.045Z,76.88
2023-02-07T18:52:29.632Z,76.89
2023-02-07T18:54:57.828Z,76.77
2023-02-07T18:57:24.854Z,76.94
2023-02-07T18:59:52.258Z,77.28
2023-02-07T19:02:19.446Z,77.26
2023-02-07T19:04:47.624Z,77.52
2023-02-07T19:07:15.005Z,77.80
2023-02-07T19:09:42.184Z,77.66
2023-02-07T19:12:10.772Z,77.60
2023-02-07T19:14:38.245Z,77.77
2023-02-07T19:17:05.346Z,77.89
2023-02-07T19:19:32.754Z,78.18
2023-02-07T19:22:00.329Z,78.58
2023-02-07T19:24:27.891Z,78.79
2023-02-07T19:26:56.731Z,78.39
2023-02-07T19:29:29.477Z,78.47
2023-02-07T19:32:02.089Z,78.12
2023-02-07T19:34:29.497Z,78.30
2023-02-07T19:36:56.974Z,78.61
2023-02-07T19:39:24.814Z,78.87
2023-02-07T19:41:52.033Z,78.74
2023-02-07T19:44:19.095Z,78.81
2023-02-07T19:46:46.373Z,79.02
2023-02-07T19:49:13.995Z,78.78
2023-02-07T19:51:41.834Z,78.86
2023-02-07T19:54:08.910Z,78.74
2023-02-07T19:56:36.631Z,78.84
2023-02-07T19:59:05.334Z,78.81
2023-02-07T20:01:34.180Z,79.13
2023-02-07T20:04:01.502Z,79.24
2023-02-07T20:06:33.051Z,78.86
2023-02-07T20:09:03.784Z,79.18
2023-02-07T20:11:31.014Z,79.37
2023-02-07T20:14:03.991Z,79.11
2023-02-07T20:16:34.469Z,79.30
2023-02-07T20:19:02.692Z,78.75
2023-02-07T20:21:30.589Z,78.95
2023-02-07T20:23:57.754Z,79.06
2023-02-07T20:26:31.572Z,78.81
2023-02-07T20:29:06.722Z,78.82
2023-02-07T20:31:34.019Z,78.82
2023-02-07T20:34:02.068Z,79.03
2023-02-07T20:36:30.852Z,78.82
2023-02-07T20:38:59.327Z,78.94
2023-02-07T20:41:32.455Z,78.89
2023-02-07T20:44:04.354Z,78.41
2023-02-07T20:46:34.239Z,78.57
2023-02-07T20:49:04.419Z,78.44
2023-02-07T20:51:31.782Z,78.42
2023-02-07T20:54:00.576Z,78.60
2023-02-07T20:56:28.348Z,77.98
2023-02-07T20:58:55.796Z,78.28
2023-02-07T21:01:24.555Z,78.51
2023-02-07T21:03:53.648Z,79.07
2023-02-07T21:06:22.893Z,79.16
2023-02-07T21:09:00.059Z,78.64
2023-02-07T21:11:36.060Z,79.09
2023-02-07T21:14:05.251Z,79.00
2023-02-07T21:16:32.663Z,79.16
2023-02-07T21:19:00.136Z,79.41
2023-02-07T21:21:27.784Z,79.40
2023-02-07T21:23:55.116Z,79.04
2023-02-07T21:26:22.176Z,78.77
2023-02-07T21:28:49.624Z,78.68
2023-02-07T21:31:19.500Z,78.80
2023-02-07T21:33:47.634Z,78.73
2023-02-07T21:36:18.048Z,78.63
2023-02-07T21:38:48.504Z,78.73
2023-02-07T21:41:17.863Z,79.21
2023-02-07T21:43:45.036Z,78.84
2023-02-07T21:46:17.894Z,78.33
2023-02-07T21:48:46.449Z,77.88
2023-02-07T21:51:16.354Z,77.78
2023-02-07T21:53:44.464Z,77.85
2023-02-07T21:56:15.767Z,77.82
2023-02-07T21:58:43.402Z,78.08
2023-02-07T22:01:16.690Z,78.78
2023-02-07T22:03:45.997Z,78.67
2023-02-07T22:06:15.083Z,78.21
2023-02-07T22:08:47.473Z,78.40
2023-02-07T22:11:17.671Z,78.59
2023-02-07T22:13:45.461Z,78.29
2023-02-07T22:16:13.998Z,78.20
2023-02-07T22:18:41.886Z,78.15
2023-02-07T22:21:11.705Z,78.49
2023-02-07T22:23:38.786Z,78.52
2023-02-07T22:26:06.499Z,78.75
2023-02-07T22:28:33.941Z,78.93
2023-02-07T22:31:01.236Z,78.88
2023-02-07T22:33:28.466Z,79.12
2023-02-07T22:35:55.536Z,79.06
2023-02-07T22:38:23.171Z,78.78
2023-02-07T22:40:50.218Z,78.20
2023-02-07T22:43:17.323Z,78.56
2023-02-07T22:45:46.131Z,78.66
2023-02-07T22:48:15.328Z,78.21
2023-02-07T22:50:43.339Z,78.01
2023-02-07T22:53:13.361Z,78.24
2023-02-07T22:55:40.924Z,78.79
2023-02-07T22:58:08.428Z,79.11
2023-02-07T23:00:35.735Z,78.70
2023-02-07T23:03:02.811Z,79.06
2023-02-07T23:05:29.901Z,79.11
2023-02-07T23:07:56.985Z,78.84
2023-02-07T23:10:26.327Z,79.10
2023-02-07T23:12:53.621Z,78.69
2023-02-07T23:15:20.686Z,78.59
2023-02-07T23:17:47.707Z,78.40
2023-02-07T23:20:15.096Z,78.41
2023-02-07T23:22:42.137Z,79.06
2023-02-07T23:25:10.000Z,78.74
2023-02-07T23:27:37.235Z,78.35
2023-02-07T23:30:04.812Z,78.37
2023-02-07T23:32:31.886Z,77.59
2023-02-07T23:34:59.127Z,77.95
2023-02-07T23:37:26.193Z,78.24
2023-02-07T23:39:53.242Z,78.36
2023-02-07T23:42:20.250Z,78.74
2023-02-07T23:44:50.270Z,78.73
2023-02-07T23:47:18.406Z,78.90
2023-02-07T23:49:45.639Z,78.70
2023-02-07T23:52:12.779Z,78.67
2023-02-07T23:54:40.101Z,78.45
2023-02-07T23:57:07.150Z,78.70
2023-02-07T23:59:34.852Z,78.28
